sensor_id;sensor_type;location;lat;lon;timestamp;P1;durP1;ratioP1;P2;durP2;ratioP2
36315;SDS011;22343;50.820;2.666;2023-04-16T00:01:07;13.67;;;9.17;;
36315;SDS011;22343;50.820;2.666;2023-04-16T00:03:51;11.43;;;8.97;;
36315;SDS011;22343;50.820;2.666;2023-04-16T00:06:36;13.23;;;10.07;;
36315;SDS011;22343;50.820;2.666;2023-04-16T00:09:20;16.70;;;10.37;;
36315;SDS011;22343;50.820;2.666;2023-04-16T00:12:04;14.23;;;9.70;;
36315;SDS011;22343;50.820;2.666;2023-04-16T00:14:49;16.93;;;10.00;;
36315;SDS011;22343;50.820;2.666;2023-04-16T00:17:33;16.43;;;10.03;;
36315;SDS011;22343;50.820;2.666;2023-04-16T00:20:17;16.43;;;10.23;;
36315;SDS011;22343;50.820;2.666;2023-04-16T00:23:03;15.23;;;10.13;;
36315;SDS011;22343;50.820;2.666;2023-04-16T00:25:47;17.50;;;10.70;;
36315;SDS011;22343;50.820;2.666;2023-04-16T00:28:31;15.73;;;10.40;;
36315;SDS011;22343;50.820;2.666;2023-04-16T00:31:16;13.37;;;10.33;;
36315;SDS011;22343;50.820;2.666;2023-04-16T00:34:00;16.67;;;10.30;;
36315;SDS011;22343;50.820;2.666;2023-04-16T00:36:44;14.27;;;9.93;;
36315;SDS011;22343;50.820;2.666;2023-04-16T00:39:29;15.67;;;9.63;;
36315;SDS011;22343;50.820;2.666;2023-04-16T00:42:13;16.33;;;9.57;;
36315;SDS011;22343;50.820;2.666;2023-04-16T00:44:57;13.37;;;9.80;;
36315;SDS011;22343;50.820;2.666;2023-04-16T00:47:42;13.57;;;9.73;;
36315;SDS011;22343;50.820;2.666;2023-04-16T00:50:28;15.00;;;10.07;;
36315;SDS011;22343;50.820;2.666;2023-04-16T00:53:13;12.50;;;9.63;;
36315;SDS011;22343;50.820;2.666;2023-04-16T00:55:58;14.23;;;9.90;;
36315;SDS011;22343;50.820;2.666;2023-04-16T00:58:42;15.63;;;9.93;;
36315;SDS011;22343;50.820;2.666;2023-04-16T01:01:26;16.53;;;10.57;;
36315;SDS011;22343;50.820;2.666;2023-04-16T01:04:11;16.53;;;10.13;;
36315;SDS011;22343;50.820;2.666;2023-04-16T01:06:55;17.57;;;11.10;;
36315;SDS011;22343;50.820;2.666;2023-04-16T01:09:39;17.53;;;10.57;;
36315;SDS011;22343;50.820;2.666;2023-04-16T01:12:24;17.10;;;11.10;;
36315;SDS011;22343;50.820;2.666;2023-04-16T01:15:09;18.57;;;11.30;;
36315;SDS011;22343;50.820;2.666;2023-04-16T01:17:54;17.37;;;10.73;;
36315;SDS011;22343;50.820;2.666;2023-04-16T01:20:38;18.27;;;11.30;;
36315;SDS011;22343;50.820;2.666;2023-04-16T01:23:22;18.73;;;11.20;;
36315;SDS011;22343;50.820;2.666;2023-04-16T01:26:07;16.60;;;11.30;;
36315;SDS011;22343;50.820;2.666;2023-04-16T01:28:51;15.87;;;11.00;;
36315;SDS011;22343;50.820;2.666;2023-04-16T01:31:35;20.03;;;11.53;;
36315;SDS011;22343;50.820;2.666;2023-04-16T01:34:20;16.60;;;11.27;;
36315;SDS011;22343;50.820;2.666;2023-04-16T01:37:04;17.50;;;10.97;;
36315;SDS011;22343;50.820;2.666;2023-04-16T01:39:48;20.00;;;11.00;;
36315;SDS011;22343;50.820;2.666;2023-04-16T01:42:33;15.80;;;11.50;;
36315;SDS011;22343;50.820;2.666;2023-04-16T01:45:17;18.07;;;11.30;;
36315;SDS011;22343;50.820;2.666;2023-04-16T01:48:02;21.00;;;11.83;;
36315;SDS011;22343;50.820;2.666;2023-04-16T01:50:47;19.37;;;11.60;;
36315;SDS011;22343;50.820;2.666;2023-04-16T01:53:31;21.40;;;11.87;;
36315;SDS011;22343;50.820;2.666;2023-04-16T01:56:15;16.87;;;11.80;;
36315;SDS011;22343;50.820;2.666;2023-04-16T01:59:00;17.70;;;11.30;;
36315;SDS011;22343;50.820;2.666;2023-04-16T02:01:44;18.70;;;11.07;;
36315;SDS011;22343;50.820;2.666;2023-04-16T02:04:29;18.43;;;11.37;;
36315;SDS011;22343;50.820;2.666;2023-04-16T02:07:13;17.50;;;11.10;;
36315;SDS011;22343;50.820;2.666;2023-04-16T02:09:58;17.37;;;11.20;;
36315;SDS011;22343;50.820;2.666;2023-04-16T02:12:43;16.57;;;10.90;;
36315;SDS011;22343;50.820;2.666;2023-04-16T02:15:27;18.30;;;11.13;;
36315;SDS011;22343;50.820;2.666;2023-04-16T02:18:12;24.57;;;11.23;;
36315;SDS011;22343;50.820;2.666;2023-04-16T02:20:57;18.77;;;11.10;;
36315;SDS011;22343;50.820;2.666;2023-04-16T02:23:45;18.90;;;10.73;;
36315;SDS011;22343;50.820;2.666;2023-04-16T02:26:34;15.23;;;10.87;;
36315;SDS011;22343;50.820;2.666;2023-04-16T02:29:19;17.97;;;10.53;;
36315;SDS011;22343;50.820;2.666;2023-04-16T02:32:04;16.03;;;11.10;;
36315;SDS011;22343;50.820;2.666;2023-04-16T02:34:49;16.13;;;11.23;;
36315;SDS011;22343;50.820;2.666;2023-04-16T02:37:34;16.90;;;10.47;;
36315;SDS011;22343;50.820;2.666;2023-04-16T02:40:18;14.27;;;10.10;;
36315;SDS011;22343;50.820;2.666;2023-04-16T02:43:02;14.30;;;9.80;;
36315;SDS011;22343;50.820;2.666;2023-04-16T02:45:46;15.00;;;9.87;;
36315;SDS011;22343;50.820;2.666;2023-04-16T02:48:31;16.40;;;10.20;;
36315;SDS011;22343;50.820;2.666;2023-04-16T02:51:15;16.40;;;10.37;;
36315;SDS011;22343;50.820;2.666;2023-04-16T02:53:59;13.53;;;10.37;;
36315;SDS011;22343;50.820;2.666;2023-04-16T02:56:46;16.10;;;10.67;;
36315;SDS011;22343;50.820;2.666;2023-04-16T02:59:30;17.90;;;10.67;;
36315;SDS011;22343;50.820;2.666;2023-04-16T03:02:14;16.70;;;9.93;;
36315;SDS011;22343;50.820;2.666;2023-04-16T03:04:59;17.90;;;10.70;;
36315;SDS011;22343;50.820;2.666;2023-04-16T03:07:43;16.07;;;9.77;;
36315;SDS011;22343;50.820;2.666;2023-04-16T03:10:28;16.03;;;10.43;;
36315;SDS011;22343;50.820;2.666;2023-04-16T03:13:12;19.70;;;10.50;;
36315;SDS011;22343;50.820;2.666;2023-04-16T03:15:57;17.80;;;10.87;;
36315;SDS011;22343;50.820;2.666;2023-04-16T03:18:41;18.00;;;10.27;;
36315;SDS011;22343;50.820;2.666;2023-04-16T03:21:25;22.20;;;12.13;;
36315;SDS011;22343;50.820;2.666;2023-04-16T03:24:11;17.57;;;11.17;;
36315;SDS011;22343;50.820;2.666;2023-04-16T03:26:56;20.50;;;10.77;;
36315;SDS011;22343;50.820;2.666;2023-04-16T03:29:41;13.23;;;9.83;;
36315;SDS011;22343;50.820;2.666;2023-04-16T03:32:25;14.23;;;9.30;;
36315;SDS011;22343;50.820;2.666;2023-04-16T03:35:10;14.13;;;9.67;;
36315;SDS011;22343;50.820;2.666;2023-04-16T03:37:55;13.73;;;9.93;;
36315;SDS011;22343;50.820;2.666;2023-04-16T03:40:40;14.33;;;9.83;;
36315;SDS011;22343;50.820;2.666;2023-04-16T03:43:24;17.70;;;9.63;;
36315;SDS011;22343;50.820;2.666;2023-04-16T03:46:08;10.27;;;9.00;;
36315;SDS011;22343;50.820;2.666;2023-04-16T03:48:53;14.97;;;9.37;;
36315;SDS011;22343;50.820;2.666;2023-04-16T03:51:37;16.40;;;10.20;;
36315;SDS011;22343;50.820;2.666;2023-04-16T03:54:21;14.53;;;9.60;;
36315;SDS011;22343;50.820;2.666;2023-04-16T03:57:06;16.00;;;9.43;;
36315;SDS011;22343;50.820;2.666;2023-04-16T03:59:50;12.77;;;9.50;;
36315;SDS011;22343;50.820;2.666;2023-04-16T04:02:34;12.53;;;9.53;;
36315;SDS011;22343;50.820;2.666;2023-04-16T04:05:19;13.13;;;9.40;;
36315;SDS011;22343;50.820;2.666;2023-04-16T04:08:03;11.17;;;8.77;;
36315;SDS011;22343;50.820;2.666;2023-04-16T04:10:48;13.93;;;9.37;;
36315;SDS011;22343;50.820;2.666;2023-04-16T04:13:34;16.87;;;9.83;;
36315;SDS011;22343;50.820;2.666;2023-04-16T04:16:18;15.77;;;9.77;;
36315;SDS011;22343;50.820;2.666;2023-04-16T04:19:02;13.43;;;9.60;;
36315;SDS011;22343;50.820;2.666;2023-04-16T04:21:46;14.47;;;9.57;;
36315;SDS011;22343;50.820;2.666;2023-04-16T04:24:31;16.07;;;10.47;;
36315;SDS011;22343;50.820;2.666;2023-04-16T04:27:15;16.70;;;10.17;;
36315;SDS011;22343;50.820;2.666;2023-04-16T04:30:00;17.10;;;9.37;;
36315;SDS011;22343;50.820;2.666;2023-04-16T04:32:44;12.17;;;9.33;;
36315;SDS011;22343;50.820;2.666;2023-04-16T04:35:29;15.07;;;9.77;;
36315;SDS011;22343;50.820;2.666;2023-04-16T04:38:14;11.77;;;9.10;;
36315;SDS011;22343;50.820;2.666;2023-04-16T04:41:02;11.40;;;8.40;;
36315;SDS011;22343;50.820;2.666;2023-04-16T04:43:47;11.17;;;7.80;;
36315;SDS011;22343;50.820;2.666;2023-04-16T04:46:31;14.57;;;9.13;;
36315;SDS011;22343;50.820;2.666;2023-04-16T04:49:15;13.97;;;9.13;;
36315;SDS011;22343;50.820;2.666;2023-04-16T04:51:59;16.67;;;9.47;;
36315;SDS011;22343;50.820;2.666;2023-04-16T04:54:44;13.60;;;8.93;;
36315;SDS011;22343;50.820;2.666;2023-04-16T04:57:28;12.63;;;8.07;;
36315;SDS011;22343;50.820;2.666;2023-04-16T05:00:12;9.77;;;7.30;;
36315;SDS011;22343;50.820;2.666;2023-04-16T05:02:57;14.73;;;8.80;;
36315;SDS011;22343;50.820;2.666;2023-04-16T05:05:44;8.27;;;7.23;;
36315;SDS011;22343;50.820;2.666;2023-04-16T05:08:28;12.00;;;8.30;;
36315;SDS011;22343;50.820;2.666;2023-04-16T05:11:13;9.93;;;6.90;;
36315;SDS011;22343;50.820;2.666;2023-04-16T05:13:57;9.33;;;7.07;;
36315;SDS011;22343;50.820;2.666;2023-04-16T05:16:41;32.07;;;7.33;;
36315;SDS011;22343;50.820;2.666;2023-04-16T05:19:25;8.63;;;6.40;;
36315;SDS011;22343;50.820;2.666;2023-04-16T05:22:10;8.53;;;6.00;;
36315;SDS011;22343;50.820;2.666;2023-04-16T05:24:55;10.13;;;5.40;;
36315;SDS011;22343;50.820;2.666;2023-04-16T05:27:39;8.27;;;5.27;;
36315;SDS011;22343;50.820;2.666;2023-04-16T05:30:23;5.73;;;4.50;;
36315;SDS011;22343;50.820;2.666;2023-04-16T05:33:08;18.37;;;5.10;;
36315;SDS011;22343;50.820;2.666;2023-04-16T05:35:53;6.67;;;4.53;;
36315;SDS011;22343;50.820;2.666;2023-04-16T05:38:37;5.97;;;4.73;;
36315;SDS011;22343;50.820;2.666;2023-04-16T05:41:21;8.53;;;6.13;;
36315;SDS011;22343;50.820;2.666;2023-04-16T05:44:05;8.97;;;6.63;;
36315;SDS011;22343;50.820;2.666;2023-04-16T05:46:49;7.23;;;5.57;;
36315;SDS011;22343;50.820;2.666;2023-04-16T05:49:34;9.80;;;6.77;;
36315;SDS011;22343;50.820;2.666;2023-04-16T05:52:20;12.10;;;7.60;;
36315;SDS011;22343;50.820;2.666;2023-04-16T05:55:04;11.50;;;7.30;;
36315;SDS011;22343;50.820;2.666;2023-04-16T05:57:50;11.53;;;8.03;;
36315;SDS011;22343;50.820;2.666;2023-04-16T06:00:34;11.83;;;8.07;;
36315;SDS011;22343;50.820;2.666;2023-04-16T06:03:19;13.07;;;8.20;;
36315;SDS011;22343;50.820;2.666;2023-04-16T06:06:03;12.73;;;8.07;;
36315;SDS011;22343;50.820;2.666;2023-04-16T06:08:48;15.90;;;9.73;;
36315;SDS011;22343;50.820;2.666;2023-04-16T06:11:32;15.70;;;10.27;;
36315;SDS011;22343;50.820;2.666;2023-04-16T06:14:16;16.73;;;10.53;;
36315;SDS011;22343;50.820;2.666;2023-04-16T06:17:01;14.47;;;10.50;;
36315;SDS011;22343;50.820;2.666;2023-04-16T06:19:45;14.03;;;10.33;;
36315;SDS011;22343;50.820;2.666;2023-04-16T06:22:29;14.17;;;10.77;;
36315;SDS011;22343;50.820;2.666;2023-04-16T06:25:14;16.17;;;11.47;;
36315;SDS011;22343;50.820;2.666;2023-04-16T06:27:58;19.10;;;10.30;;
36315;SDS011;22343;50.820;2.666;2023-04-16T06:30:43;15.53;;;10.27;;
36315;SDS011;22343;50.820;2.666;2023-04-16T06:33:27;17.10;;;10.60;;
36315;SDS011;22343;50.820;2.666;2023-04-16T06:36:11;17.07;;;10.50;;
36315;SDS011;22343;50.820;2.666;2023-04-16T06:38:55;16.03;;;10.00;;
36315;SDS011;22343;50.820;2.666;2023-04-16T06:41:40;14.80;;;10.07;;
36315;SDS011;22343;50.820;2.666;2023-04-16T06:44:24;15.33;;;9.27;;
36315;SDS011;22343;50.820;2.666;2023-04-16T06:47:08;11.13;;;8.40;;
36315;SDS011;22343;50.820;2.666;2023-04-16T06:49:53;15.07;;;8.37;;
36315;SDS011;22343;50.820;2.666;2023-04-16T06:52:37;11.07;;;7.80;;
36315;SDS011;22343;50.820;2.666;2023-04-16T06:55:22;11.60;;;7.97;;
36315;SDS011;22343;50.820;2.666;2023-04-16T06:58:06;11.37;;;7.30;;
36315;SDS011;22343;50.820;2.666;2023-04-16T07:00:50;11.80;;;8.03;;
36315;SDS011;22343;50.820;2.666;2023-04-16T07:03:35;12.07;;;7.50;;
36315;SDS011;22343;50.820;2.666;2023-04-16T07:06:19;12.33;;;7.57;;
36315;SDS011;22343;50.820;2.666;2023-04-16T07:09:03;12.03;;;7.83;;
36315;SDS011;22343;50.820;2.666;2023-04-16T07:11:48;11.83;;;7.90;;
36315;SDS011;22343;50.820;2.666;2023-04-16T07:14:32;11.00;;;7.90;;
36315;SDS011;22343;50.820;2.666;2023-04-16T07:17:16;11.20;;;7.77;;
36315;SDS011;22343;50.820;2.666;2023-04-16T07:20:01;11.73;;;6.97;;
36315;SDS011;22343;50.820;2.666;2023-04-16T07:22:45;8.87;;;7.40;;
36315;SDS011;22343;50.820;2.666;2023-04-16T07:25:29;9.00;;;6.97;;
36315;SDS011;22343;50.820;2.666;2023-04-16T07:28:14;9.07;;;5.93;;
36315;SDS011;22343;50.820;2.666;2023-04-16T07:31:01;9.60;;;6.20;;
36315;SDS011;22343;50.820;2.666;2023-04-16T07:33:46;11.07;;;6.83;;
36315;SDS011;22343;50.820;2.666;2023-04-16T07:36:30;8.77;;;6.40;;
36315;SDS011;22343;50.820;2.666;2023-04-16T07:39:15;7.97;;;5.80;;
36315;SDS011;22343;50.820;2.666;2023-04-16T07:42:00;11.07;;;6.67;;
36315;SDS011;22343;50.820;2.666;2023-04-16T07:44:44;9.27;;;7.00;;
36315;SDS011;22343;50.820;2.666;2023-04-16T07:47:29;8.40;;;6.37;;
36315;SDS011;22343;50.820;2.666;2023-04-16T07:50:13;9.27;;;6.50;;
36315;SDS011;22343;50.820;2.666;2023-04-16T07:52:59;8.43;;;5.93;;
36315;SDS011;22343;50.820;2.666;2023-04-16T07:55:44;8.33;;;5.87;;
36315;SDS011;22343;50.820;2.666;2023-04-16T07:58:29;9.20;;;5.97;;
36315;SDS011;22343;50.820;2.666;2023-04-16T08:01:13;8.13;;;6.20;;
36315;SDS011;22343;50.820;2.666;2023-04-16T08:03:58;12.40;;;6.83;;
36315;SDS011;22343;50.820;2.666;2023-04-16T08:06:42;10.63;;;6.70;;
36315;SDS011;22343;50.820;2.666;2023-04-16T08:09:26;10.77;;;6.17;;
36315;SDS011;22343;50.820;2.666;2023-04-16T08:12:12;10.30;;;6.30;;
36315;SDS011;22343;50.820;2.666;2023-04-16T08:14:56;13.30;;;5.50;;
36315;SDS011;22343;50.820;2.666;2023-04-16T08:17:40;8.80;;;6.23;;
36315;SDS011;22343;50.820;2.666;2023-04-16T08:20:25;7.63;;;6.17;;
36315;SDS011;22343;50.820;2.666;2023-04-16T08:23:09;9.20;;;5.70;;
36315;SDS011;22343;50.820;2.666;2023-04-16T08:25:53;7.20;;;5.27;;
36315;SDS011;22343;50.820;2.666;2023-04-16T08:28:38;10.87;;;5.47;;
36315;SDS011;22343;50.820;2.666;2023-04-16T08:31:22;6.57;;;4.57;;
36315;SDS011;22343;50.820;2.666;2023-04-16T08:34:06;6.93;;;5.27;;
36315;SDS011;22343;50.820;2.666;2023-04-16T08:36:51;7.50;;;4.67;;
36315;SDS011;22343;50.820;2.666;2023-04-16T08:39:35;6.40;;;4.77;;
36315;SDS011;22343;50.820;2.666;2023-04-16T08:42:22;8.70;;;4.60;;
36315;SDS011;22343;50.820;2.666;2023-04-16T08:45:27;8.07;;;5.20;;
36315;SDS011;22343;50.820;2.666;2023-04-16T08:48:12;5.70;;;4.40;;
36315;SDS011;22343;50.820;2.666;2023-04-16T08:50:57;8.50;;;4.23;;
36315;SDS011;22343;50.820;2.666;2023-04-16T08:53:53;6.87;;;4.50;;
36315;SDS011;22343;50.820;2.666;2023-04-16T08:56:43;9.20;;;4.80;;
36315;SDS011;22343;50.820;2.666;2023-04-16T08:59:28;7.83;;;4.80;;
36315;SDS011;22343;50.820;2.666;2023-04-16T09:02:12;8.23;;;4.30;;
36315;SDS011;22343;50.820;2.666;2023-04-16T09:04:58;5.80;;;4.37;;
36315;SDS011;22343;50.820;2.666;2023-04-16T09:07:43;6.20;;;4.13;;
36315;SDS011;22343;50.820;2.666;2023-04-16T09:10:29;8.13;;;4.40;;
36315;SDS011;22343;50.820;2.666;2023-04-16T09:13:13;5.67;;;4.03;;
36315;SDS011;22343;50.820;2.666;2023-04-16T09:16:00;5.00;;;3.27;;
36315;SDS011;22343;50.820;2.666;2023-04-16T09:18:44;8.00;;;4.03;;
36315;SDS011;22343;50.820;2.666;2023-04-16T09:21:30;6.20;;;4.10;;
36315;SDS011;22343;50.820;2.666;2023-04-16T09:24:15;6.13;;;3.90;;
36315;SDS011;22343;50.820;2.666;2023-04-16T09:26:59;6.57;;;4.17;;
36315;SDS011;22343;50.820;2.666;2023-04-16T09:29:43;5.47;;;2.90;;
36315;SDS011;22343;50.820;2.666;2023-04-16T09:32:28;5.53;;;3.97;;
36315;SDS011;22343;50.820;2.666;2023-04-16T09:35:12;6.73;;;3.80;;
36315;SDS011;22343;50.820;2.666;2023-04-16T09:37:58;5.50;;;4.20;;
36315;SDS011;22343;50.820;2.666;2023-04-16T09:40:43;8.70;;;5.70;;
36315;SDS011;22343;50.820;2.666;2023-04-16T09:43:28;6.20;;;3.67;;
36315;SDS011;22343;50.820;2.666;2023-04-16T09:46:12;5.80;;;3.30;;
36315;SDS011;22343;50.820;2.666;2023-04-16T09:48:57;7.77;;;2.87;;
36315;SDS011;22343;50.820;2.666;2023-04-16T09:51:42;5.97;;;3.50;;
36315;SDS011;22343;50.820;2.666;2023-04-16T09:54:29;5.03;;;3.60;;
36315;SDS011;22343;50.820;2.666;2023-04-16T09:57:16;7.37;;;3.80;;
36315;SDS011;22343;50.820;2.666;2023-04-16T10:00:04;5.53;;;4.17;;
36315;SDS011;22343;50.820;2.666;2023-04-16T10:02:52;6.33;;;3.90;;
36315;SDS011;22343;50.820;2.666;2023-04-16T10:05:52;7.73;;;4.20;;
36315;SDS011;22343;50.820;2.666;2023-04-16T10:08:36;6.33;;;4.00;;
36315;SDS011;22343;50.820;2.666;2023-04-16T10:11:26;6.70;;;3.80;;
36315;SDS011;22343;50.820;2.666;2023-04-16T10:14:11;5.83;;;4.00;;
36315;SDS011;22343;50.820;2.666;2023-04-16T10:16:55;9.13;;;4.13;;
36315;SDS011;22343;50.820;2.666;2023-04-16T10:19:39;6.47;;;4.30;;
36315;SDS011;22343;50.820;2.666;2023-04-16T10:22:24;8.00;;;3.90;;
36315;SDS011;22343;50.820;2.666;2023-04-16T10:25:09;5.40;;;3.67;;
36315;SDS011;22343;50.820;2.666;2023-04-16T10:27:55;5.37;;;4.00;;
36315;SDS011;22343;50.820;2.666;2023-04-16T10:30:41;6.13;;;3.63;;
36315;SDS011;22343;50.820;2.666;2023-04-16T10:33:32;6.27;;;3.73;;
36315;SDS011;22343;50.820;2.666;2023-04-16T10:36:23;5.43;;;3.30;;
36315;SDS011;22343;50.820;2.666;2023-04-16T10:39:10;7.37;;;3.70;;
36315;SDS011;22343;50.820;2.666;2023-04-16T10:44:53;6.27;;;3.90;;
36315;SDS011;22343;50.820;2.666;2023-04-16T10:47:38;6.20;;;3.60;;
36315;SDS011;22343;50.820;2.666;2023-04-16T10:50:23;5.17;;;3.67;;
36315;SDS011;22343;50.820;2.666;2023-04-16T10:56:09;5.60;;;3.87;;
36315;SDS011;22343;50.820;2.666;2023-04-16T10:58:58;5.30;;;2.83;;
36315;SDS011;22343;50.820;2.666;2023-04-16T11:01:43;5.30;;;3.53;;
36315;SDS011;22343;50.820;2.666;2023-04-16T11:04:33;7.53;;;3.67;;
36315;SDS011;22343;50.820;2.666;2023-04-16T11:07:20;7.27;;;3.77;;
36315;SDS011;22343;50.820;2.666;2023-04-16T11:10:06;6.70;;;4.03;;
36315;SDS011;22343;50.820;2.666;2023-04-16T11:12:50;6.60;;;3.17;;
36315;SDS011;22343;50.820;2.666;2023-04-16T11:15:35;5.23;;;3.20;;
36315;SDS011;22343;50.820;2.666;2023-04-16T11:18:19;4.07;;;3.00;;
36315;SDS011;22343;50.820;2.666;2023-04-16T11:21:06;4.10;;;2.70;;
36315;SDS011;22343;50.820;2.666;2023-04-16T11:23:54;5.37;;;3.00;;
36315;SDS011;22343;50.820;2.666;2023-04-16T11:26:40;3.67;;;2.57;;
36315;SDS011;22343;50.820;2.666;2023-04-16T11:29:24;5.63;;;2.77;;
36315;SDS011;22343;50.820;2.666;2023-04-16T11:32:09;4.27;;;2.80;;
36315;SDS011;22343;50.820;2.666;2023-04-16T11:34:54;6.90;;;2.97;;
36315;SDS011;22343;50.820;2.666;2023-04-16T11:37:38;5.20;;;2.70;;
36315;SDS011;22343;50.820;2.666;2023-04-16T11:40:22;5.00;;;3.30;;
36315;SDS011;22343;50.820;2.666;2023-04-16T11:43:14;4.47;;;3.00;;
36315;SDS011;22343;50.820;2.666;2023-04-16T11:46:00;4.67;;;2.93;;
36315;SDS011;22343;50.820;2.666;2023-04-16T11:48:50;4.70;;;2.80;;
36315;SDS011;22343;50.820;2.666;2023-04-16T11:51:41;3.07;;;2.40;;
36315;SDS011;22343;50.820;2.666;2023-04-16T11:54:26;5.43;;;3.47;;
36315;SDS011;22343;50.820;2.666;2023-04-16T11:57:11;5.70;;;2.40;;
36315;SDS011;22343;50.820;2.666;2023-04-16T11:59:56;2.50;;;2.07;;
36315;SDS011;22343;50.820;2.666;2023-04-16T12:02:48;5.73;;;2.60;;
36315;SDS011;22343;50.820;2.666;2023-04-16T12:05:37;5.00;;;2.60;;
36315;SDS011;22343;50.820;2.666;2023-04-16T12:08:28;7.17;;;2.63;;
36315;SDS011;22343;50.820;2.666;2023-04-16T12:11:13;9.00;;;3.03;;
36315;SDS011;22343;50.820;2.666;2023-04-16T12:14:08;3.80;;;2.43;;
36315;SDS011;22343;50.820;2.666;2023-04-16T12:16:53;4.43;;;2.50;;
36315;SDS011;22343;50.820;2.666;2023-04-16T12:19:46;3.87;;;2.40;;
36315;SDS011;22343;50.820;2.666;2023-04-16T12:22:32;4.47;;;2.37;;
36315;SDS011;22343;50.820;2.666;2023-04-16T12:25:17;5.63;;;2.47;;
36315;SDS011;22343;50.820;2.666;2023-04-16T12:28:02;5.10;;;3.03;;
36315;SDS011;22343;50.820;2.666;2023-04-16T12:30:49;4.63;;;2.60;;
36315;SDS011;22343;50.820;2.666;2023-04-16T12:33:34;4.17;;;3.00;;
36315;SDS011;22343;50.820;2.666;2023-04-16T12:36:19;4.10;;;2.50;;
36315;SDS011;22343;50.820;2.666;2023-04-16T12:39:03;3.10;;;2.60;;
36315;SDS011;22343;50.820;2.666;2023-04-16T12:41:48;3.00;;;2.40;;
36315;SDS011;22343;50.820;2.666;2023-04-16T12:44:32;3.97;;;2.87;;
36315;SDS011;22343;50.820;2.666;2023-04-16T12:47:17;4.00;;;2.23;;
36315;SDS011;22343;50.820;2.666;2023-04-16T12:50:01;3.37;;;2.77;;
36315;SDS011;22343;50.820;2.666;2023-04-16T12:52:45;6.57;;;2.77;;
36315;SDS011;22343;50.820;2.666;2023-04-16T12:55:30;3.87;;;2.50;;
36315;SDS011;22343;50.820;2.666;2023-04-16T12:58:14;3.33;;;2.27;;
36315;SDS011;22343;50.820;2.666;2023-04-16T13:00:58;3.50;;;2.47;;
36315;SDS011;22343;50.820;2.666;2023-04-16T13:03:42;4.67;;;2.67;;
36315;SDS011;22343;50.820;2.666;2023-04-16T13:06:27;5.67;;;2.70;;
36315;SDS011;22343;50.820;2.666;2023-04-16T13:09:11;4.53;;;2.23;;
36315;SDS011;22343;50.820;2.666;2023-04-16T13:11:55;3.73;;;2.50;;
36315;SDS011;22343;50.820;2.666;2023-04-16T13:14:40;3.97;;;2.33;;
36315;SDS011;22343;50.820;2.666;2023-04-16T13:17:24;6.00;;;3.10;;
36315;SDS011;22343;50.820;2.666;2023-04-16T13:20:09;3.97;;;2.70;;
36315;SDS011;22343;50.820;2.666;2023-04-16T13:22:54;4.77;;;2.97;;
36315;SDS011;22343;50.820;2.666;2023-04-16T13:25:38;4.37;;;2.33;;
36315;SDS011;22343;50.820;2.666;2023-04-16T13:28:23;3.87;;;2.20;;
36315;SDS011;22343;50.820;2.666;2023-04-16T13:31:07;4.20;;;2.40;;
36315;SDS011;22343;50.820;2.666;2023-04-16T13:33:51;5.10;;;2.40;;
36315;SDS011;22343;50.820;2.666;2023-04-16T13:36:36;3.37;;;2.30;;
36315;SDS011;22343;50.820;2.666;2023-04-16T13:39:20;5.77;;;3.20;;
36315;SDS011;22343;50.820;2.666;2023-04-16T13:42:04;8.03;;;3.10;;
36315;SDS011;22343;50.820;2.666;2023-04-16T13:44:49;2.93;;;2.33;;
36315;SDS011;22343;50.820;2.666;2023-04-16T13:47:37;3.37;;;2.50;;
36315;SDS011;22343;50.820;2.666;2023-04-16T13:50:26;7.07;;;3.00;;
36315;SDS011;22343;50.820;2.666;2023-04-16T13:53:10;4.77;;;2.70;;
36315;SDS011;22343;50.820;2.666;2023-04-16T13:55:55;4.77;;;2.90;;
36315;SDS011;22343;50.820;2.666;2023-04-16T13:58:39;4.33;;;2.80;;
36315;SDS011;22343;50.820;2.666;2023-04-16T14:01:24;5.07;;;2.53;;
36315;SDS011;22343;50.820;2.666;2023-04-16T14:04:09;2.80;;;2.30;;
36315;SDS011;22343;50.820;2.666;2023-04-16T14:06:53;4.80;;;3.07;;
36315;SDS011;22343;50.820;2.666;2023-04-16T14:09:37;4.77;;;3.03;;
36315;SDS011;22343;50.820;2.666;2023-04-16T14:12:21;2.87;;;2.20;;
36315;SDS011;22343;50.820;2.666;2023-04-16T14:15:06;4.20;;;2.70;;
36315;SDS011;22343;50.820;2.666;2023-04-16T14:17:52;4.67;;;2.57;;
36315;SDS011;22343;50.820;2.666;2023-04-16T14:20:37;4.63;;;2.70;;
36315;SDS011;22343;50.820;2.666;2023-04-16T14:23:22;4.50;;;2.80;;
36315;SDS011;22343;50.820;2.666;2023-04-16T14:26:07;4.00;;;2.53;;
36315;SDS011;22343;50.820;2.666;2023-04-16T14:28:52;4.13;;;2.77;;
36315;SDS011;22343;50.820;2.666;2023-04-16T14:31:36;5.00;;;3.30;;
36315;SDS011;22343;50.820;2.666;2023-04-16T14:34:21;5.33;;;2.90;;
36315;SDS011;22343;50.820;2.666;2023-04-16T14:37:05;4.90;;;2.53;;
36315;SDS011;22343;50.820;2.666;2023-04-16T14:39:49;4.60;;;2.37;;
36315;SDS011;22343;50.820;2.666;2023-04-16T14:42:34;3.70;;;2.83;;
36315;SDS011;22343;50.820;2.666;2023-04-16T14:45:21;7.77;;;2.97;;
36315;SDS011;22343;50.820;2.666;2023-04-16T14:48:08;5.67;;;3.03;;
36315;SDS011;22343;50.820;2.666;2023-04-16T14:50:52;3.97;;;2.70;;
36315;SDS011;22343;50.820;2.666;2023-04-16T14:53:37;3.43;;;2.50;;
36315;SDS011;22343;50.820;2.666;2023-04-16T14:56:21;4.10;;;2.67;;
36315;SDS011;22343;50.820;2.666;2023-04-16T14:59:05;5.23;;;2.73;;
36315;SDS011;22343;50.820;2.666;2023-04-16T15:01:50;5.17;;;3.17;;
36315;SDS011;22343;50.820;2.666;2023-04-16T15:04:34;4.50;;;3.00;;
36315;SDS011;22343;50.820;2.666;2023-04-16T15:07:18;4.67;;;2.70;;
36315;SDS011;22343;50.820;2.666;2023-04-16T15:10:04;4.67;;;3.07;;
36315;SDS011;22343;50.820;2.666;2023-04-16T15:12:50;5.80;;;2.60;;
36315;SDS011;22343;50.820;2.666;2023-04-16T15:15:34;3.97;;;3.10;;
36315;SDS011;22343;50.820;2.666;2023-04-16T15:18:19;4.03;;;2.77;;
36315;SDS011;22343;50.820;2.666;2023-04-16T15:21:03;3.60;;;2.73;;
36315;SDS011;22343;50.820;2.666;2023-04-16T15:23:48;5.53;;;2.90;;
36315;SDS011;22343;50.820;2.666;2023-04-16T15:26:32;4.50;;;2.90;;
36315;SDS011;22343;50.820;2.666;2023-04-16T15:29:17;4.07;;;2.63;;
36315;SDS011;22343;50.820;2.666;2023-04-16T15:32:01;4.73;;;2.90;;
36315;SDS011;22343;50.820;2.666;2023-04-16T15:34:45;4.10;;;2.80;;
36315;SDS011;22343;50.820;2.666;2023-04-16T15:37:30;4.47;;;2.87;;
36315;SDS011;22343;50.820;2.666;2023-04-16T15:40:14;5.53;;;3.07;;
36315;SDS011;22343;50.820;2.666;2023-04-16T15:43:01;3.33;;;2.70;;
36315;SDS011;22343;50.820;2.666;2023-04-16T15:45:46;5.40;;;3.17;;
36315;SDS011;22343;50.820;2.666;2023-04-16T15:48:30;3.33;;;2.63;;
36315;SDS011;22343;50.820;2.666;2023-04-16T15:51:15;4.53;;;3.00;;
36315;SDS011;22343;50.820;2.666;2023-04-16T15:53:59;4.40;;;3.27;;
36315;SDS011;22343;50.820;2.666;2023-04-16T15:56:44;5.77;;;2.87;;
36315;SDS011;22343;50.820;2.666;2023-04-16T15:59:29;4.67;;;2.90;;
36315;SDS011;22343;50.820;2.666;2023-04-16T16:02:13;4.57;;;2.77;;
36315;SDS011;22343;50.820;2.666;2023-04-16T16:04:58;4.60;;;2.90;;
36315;SDS011;22343;50.820;2.666;2023-04-16T16:07:43;6.00;;;3.20;;
36315;SDS011;22343;50.820;2.666;2023-04-16T16:10:28;4.17;;;3.10;;
36315;SDS011;22343;50.820;2.666;2023-04-16T16:13:12;4.20;;;3.30;;
36315;SDS011;22343;50.820;2.666;2023-04-16T16:16:00;5.97;;;3.10;;
36315;SDS011;22343;50.820;2.666;2023-04-16T16:18:46;5.90;;;3.40;;
36315;SDS011;22343;50.820;2.666;2023-04-16T16:21:30;4.57;;;3.37;;
36315;SDS011;22343;50.820;2.666;2023-04-16T16:24:15;3.30;;;2.90;;
36315;SDS011;22343;50.820;2.666;2023-04-16T16:26:59;4.63;;;3.50;;
36315;SDS011;22343;50.820;2.666;2023-04-16T16:29:44;5.43;;;3.23;;